< < Back
Terminal Aerodrome Forecast


Current Version              Previous Versions:   1  2  3  4  5  6  7  8  9  

Terminal Aerodrome Forecast

681
FTUS42 KTAE 181900 AAA
TAFVLD
TAF AMD
KVLD 181901Z 1819/1918 05008KT 5SM RA BKN007 OVC010
      TEMPO 1819/1823 06010G17KT 3SM RA
     FM190600 33006KT P6SM OVC005
     FM191300 32006KT P6SM OVC015=

Latest METAR

097
SAUS70 KWBC 191200 RRI
MTRVLD
METAR KVLD 191153Z 02006KT 10SM OVC005 14/12 A2991 RMK AO2 RAE20 SLP136
P0001 60007 70245 T01440122 10156 20144 53009


USA.gov is the U.S. government's official web portal to all federal, state and local government web resources and services.